Archival Weather

Norman Y Mineta San Jose Intl

San Jose, California (KSJC)

Report from: Saturday, February 24, 2024 5:53 PM PST
Current time: Friday, June 14, 2024 6:20 AM PDT

Current weather – Weather history – Daily summaries
Weather forecast

Temperature17.8°C (64.0°F)
Dew point7.8°C (46.0°F)
Winds 5 kts (2.6 m/s, 5.8 mph) West-Northwest (300°)
Visibility10 mi. (16.1 km)
Clouds Few clouds 5,000 ft. (1,524 m)
Altimeter29.99 in.Hg (1016 mB)
Relative humidity52 %
Density altitude413 ft. (126 m)
Sea-level pressure101.5 kPa (1015 mB, 29.98 in.Hg)
Remarks Automated weather observing station with precipitation discriminator
Flight conditions Visual Meteorological Conditions
Raw dataKSJC 250153Z 30005KT 10SM FEW050 18/08 A2999 RMK AO2 SLP153 T01780078
An error has occurred. This application may no longer respond until reloaded. Reload 🗙